sensor_id;sensor_type;location;lat;lon;timestamp;temperature;humidity
17565;DHT22;62994;52.126;5.596;2024-01-16T00:00:01;2.90;99.90
17565;DHT22;62994;52.126;5.596;2024-01-16T00:02:29;2.80;99.90
17565;DHT22;62994;52.126;5.596;2024-01-16T00:04:57;2.80;99.90
17565;DHT22;62994;52.126;5.596;2024-01-16T00:07:24;2.90;99.90
17565;DHT22;62994;52.126;5.596;2024-01-16T00:09:51;2.80;99.90
17565;DHT22;62994;52.126;5.596;2024-01-16T00:12:21;2.80;99.90
17565;DHT22;62994;52.126;5.596;2024-01-16T00:14:48;2.80;99.90
17565;DHT22;62994;52.126;5.596;2024-01-16T00:17:15;2.80;99.90
17565;DHT22;62994;52.126;5.596;2024-01-16T00:19:42;2.80;99.90
17565;DHT22;62994;52.126;5.596;2024-01-16T00:22:10;2.80;99.90
17565;DHT22;62994;52.126;5.596;2024-01-16T00:24:37;2.80;99.90
17565;DHT22;62994;52.126;5.596;2024-01-16T00:27:04;2.80;99.90
17565;DHT22;62994;52.126;5.596;2024-01-16T00:29:31;2.80;99.90
17565;DHT22;62994;52.126;5.596;2024-01-16T00:31:58;2.90;99.90
17565;DHT22;62994;52.126;5.596;2024-01-16T00:34:25;2.90;99.90
17565;DHT22;62994;52.126;5.596;2024-01-16T00:36:52;2.90;99.90
17565;DHT22;62994;52.126;5.596;2024-01-16T00:39:20;2.90;99.90
17565;DHT22;62994;52.126;5.596;2024-01-16T00:41:47;2.90;99.90
17565;DHT22;62994;52.126;5.596;2024-01-16T00:44:14;2.90;99.90
17565;DHT22;62994;52.126;5.596;2024-01-16T00:46:41;2.90;99.90
17565;DHT22;62994;52.126;5.596;2024-01-16T00:49:08;2.90;99.90
17565;DHT22;62994;52.126;5.596;2024-01-16T00:51:35;2.80;99.90
17565;DHT22;62994;52.126;5.596;2024-01-16T00:54:06;2.80;99.90
17565;DHT22;62994;52.126;5.596;2024-01-16T00:56:35;2.80;99.90
17565;DHT22;62994;52.126;5.596;2024-01-16T00:59:02;2.80;99.90
17565;DHT22;62994;52.126;5.596;2024-01-16T01:01:29;2.80;99.90
17565;DHT22;62994;52.126;5.596;2024-01-16T01:03:56;2.80;99.90
17565;DHT22;62994;52.126;5.596;2024-01-16T01:06:23;2.80;99.90
17565;DHT22;62994;52.126;5.596;2024-01-16T01:08:50;2.80;99.90
17565;DHT22;62994;52.126;5.596;2024-01-16T01:11:16;2.80;99.90
17565;DHT22;62994;52.126;5.596;2024-01-16T01:13:45;2.80;99.90
17565;DHT22;62994;52.126;5.596;2024-01-16T01:16:12;2.80;99.90
17565;DHT22;62994;52.126;5.596;2024-01-16T01:18:39;2.80;99.90
17565;DHT22;62994;52.126;5.596;2024-01-16T01:21:06;2.80;99.90
17565;DHT22;62994;52.126;5.596;2024-01-16T01:23:33;2.70;99.90
17565;DHT22;62994;52.126;5.596;2024-01-16T01:26:00;2.70;99.90
17565;DHT22;62994;52.126;5.596;2024-01-16T01:28:27;2.70;99.90
17565;DHT22;62994;52.126;5.596;2024-01-16T01:30:55;2.70;99.90
17565;DHT22;62994;52.126;5.596;2024-01-16T01:33:22;2.70;99.90
17565;DHT22;62994;52.126;5.596;2024-01-16T01:35:49;2.60;99.90
17565;DHT22;62994;52.126;5.596;2024-01-16T01:38:16;2.60;99.90
17565;DHT22;62994;52.126;5.596;2024-01-16T01:40:44;2.60;99.90
17565;DHT22;62994;52.126;5.596;2024-01-16T01:43:18;2.60;99.90
17565;DHT22;62994;52.126;5.596;2024-01-16T01:45:48;2.60;99.90
17565;DHT22;62994;52.126;5.596;2024-01-16T01:48:22;2.60;99.90
17565;DHT22;62994;52.126;5.596;2024-01-16T01:50:49;2.60;99.90
17565;DHT22;62994;52.126;5.596;2024-01-16T01:53:16;2.60;99.90
17565;DHT22;62994;52.126;5.596;2024-01-16T01:55:43;2.50;99.90
17565;DHT22;62994;52.126;5.596;2024-01-16T01:58:11;2.50;99.90
17565;DHT22;62994;52.126;5.596;2024-01-16T02:00:38;2.40;99.90
17565;DHT22;62994;52.126;5.596;2024-01-16T02:03:05;2.40;99.90
17565;DHT22;62994;52.126;5.596;2024-01-16T02:05:34;2.40;99.90
17565;DHT22;62994;52.126;5.596;2024-01-16T02:08:01;2.40;99.90
17565;DHT22;62994;52.126;5.596;2024-01-16T02:10:29;2.50;99.90
17565;DHT22;62994;52.126;5.596;2024-01-16T02:12:56;2.50;99.90
17565;DHT22;62994;52.126;5.596;2024-01-16T02:15:24;2.40;99.90
17565;DHT22;62994;52.126;5.596;2024-01-16T02:17:51;2.40;99.90
17565;DHT22;62994;52.126;5.596;2024-01-16T02:20:18;2.40;99.90
17565;DHT22;62994;52.126;5.596;2024-01-16T02:22:49;2.40;99.90
17565;DHT22;62994;52.126;5.596;2024-01-16T02:25:19;2.40;99.90
17565;DHT22;62994;52.126;5.596;2024-01-16T02:27:47;2.40;99.90
17565;DHT22;62994;52.126;5.596;2024-01-16T02:30:14;2.30;99.90
17565;DHT22;62994;52.126;5.596;2024-01-16T02:32:41;2.30;99.90
17565;DHT22;62994;52.126;5.596;2024-01-16T02:35:08;2.30;99.90
17565;DHT22;62994;52.126;5.596;2024-01-16T02:37:36;2.40;99.90
17565;DHT22;62994;52.126;5.596;2024-01-16T02:40:03;2.30;99.90
17565;DHT22;62994;52.126;5.596;2024-01-16T02:42:33;2.30;99.90
17565;DHT22;62994;52.126;5.596;2024-01-16T02:45:00;2.30;99.90
17565;DHT22;62994;52.126;5.596;2024-01-16T02:47:27;2.30;99.90
17565;DHT22;62994;52.126;5.596;2024-01-16T02:49:54;2.20;99.90
17565;DHT22;62994;52.126;5.596;2024-01-16T02:52:21;2.30;99.90
17565;DHT22;62994;52.126;5.596;2024-01-16T02:54:48;2.30;99.90
17565;DHT22;62994;52.126;5.596;2024-01-16T02:57:15;2.30;99.90
17565;DHT22;62994;52.126;5.596;2024-01-16T02:59:45;2.30;99.90
17565;DHT22;62994;52.126;5.596;2024-01-16T03:02:12;2.40;99.90
17565;DHT22;62994;52.126;5.596;2024-01-16T03:04:39;2.30;99.90
17565;DHT22;62994;52.126;5.596;2024-01-16T03:07:07;2.30;99.90
17565;DHT22;62994;52.126;5.596;2024-01-16T03:09:34;2.40;99.90
17565;DHT22;62994;52.126;5.596;2024-01-16T03:12:02;2.40;99.90
17565;DHT22;62994;52.126;5.596;2024-01-16T03:14:29;2.40;99.90
17565;DHT22;62994;52.126;5.596;2024-01-16T03:17:01;2.30;99.90
17565;DHT22;62994;52.126;5.596;2024-01-16T03:19:28;2.30;99.90
17565;DHT22;62994;52.126;5.596;2024-01-16T03:21:55;2.30;99.90
17565;DHT22;62994;52.126;5.596;2024-01-16T03:24:22;2.40;99.90
17565;DHT22;62994;52.126;5.596;2024-01-16T03:26:49;2.30;99.90
17565;DHT22;62994;52.126;5.596;2024-01-16T03:29:16;2.40;99.90
17565;DHT22;62994;52.126;5.596;2024-01-16T03:31:43;2.30;99.90
17565;DHT22;62994;52.126;5.596;2024-01-16T03:34:11;2.40;99.90
17565;DHT22;62994;52.126;5.596;2024-01-16T03:36:38;2.40;99.90
17565;DHT22;62994;52.126;5.596;2024-01-16T03:39:05;2.30;99.90
17565;DHT22;62994;52.126;5.596;2024-01-16T03:41:32;2.30;99.90
17565;DHT22;62994;52.126;5.596;2024-01-16T03:43:59;2.30;99.90
17565;DHT22;62994;52.126;5.596;2024-01-16T03:46:26;2.20;99.90
17565;DHT22;62994;52.126;5.596;2024-01-16T03:48:53;2.20;99.90
17565;DHT22;62994;52.126;5.596;2024-01-16T03:51:22;2.20;99.90
17565;DHT22;62994;52.126;5.596;2024-01-16T03:53:49;2.10;99.90
17565;DHT22;62994;52.126;5.596;2024-01-16T03:56:16;2.20;99.90
17565;DHT22;62994;52.126;5.596;2024-01-16T03:58:43;2.30;99.90
17565;DHT22;62994;52.126;5.596;2024-01-16T04:01:10;2.30;99.90
17565;DHT22;62994;52.126;5.596;2024-01-16T04:03:39;2.30;99.90
17565;DHT22;62994;52.126;5.596;2024-01-16T04:06:14;2.30;99.90
17565;DHT22;62994;52.126;5.596;2024-01-16T04:08:43;2.30;99.90
17565;DHT22;62994;52.126;5.596;2024-01-16T04:11:12;2.40;99.90
17565;DHT22;62994;52.126;5.596;2024-01-16T04:13:39;2.30;99.90
17565;DHT22;62994;52.126;5.596;2024-01-16T04:16:06;2.30;99.90
17565;DHT22;62994;52.126;5.596;2024-01-16T04:18:35;2.40;99.90
17565;DHT22;62994;52.126;5.596;2024-01-16T04:21:03;2.50;99.90
17565;DHT22;62994;52.126;5.596;2024-01-16T04:23:30;2.60;99.90
17565;DHT22;62994;52.126;5.596;2024-01-16T04:25:58;2.60;99.90
17565;DHT22;62994;52.126;5.596;2024-01-16T04:28:29;2.60;99.90
17565;DHT22;62994;52.126;5.596;2024-01-16T04:30:56;2.50;99.90
17565;DHT22;62994;52.126;5.596;2024-01-16T04:33:23;2.50;99.90
17565;DHT22;62994;52.126;5.596;2024-01-16T04:35:50;2.50;99.90
17565;DHT22;62994;52.126;5.596;2024-01-16T04:38:17;2.50;99.90
17565;DHT22;62994;52.126;5.596;2024-01-16T04:40:44;2.50;99.90
17565;DHT22;62994;52.126;5.596;2024-01-16T04:43:12;2.40;99.90
17565;DHT22;62994;52.126;5.596;2024-01-16T04:45:39;2.40;99.90
17565;DHT22;62994;52.126;5.596;2024-01-16T04:48:06;2.40;99.90
17565;DHT22;62994;52.126;5.596;2024-01-16T04:50:34;2.40;99.90
17565;DHT22;62994;52.126;5.596;2024-01-16T04:53:01;2.30;99.90
17565;DHT22;62994;52.126;5.596;2024-01-16T04:55:28;2.30;99.90
17565;DHT22;62994;52.126;5.596;2024-01-16T04:57:55;2.30;99.90
17565;DHT22;62994;52.126;5.596;2024-01-16T05:00:24;2.30;99.90
17565;DHT22;62994;52.126;5.596;2024-01-16T05:02:53;2.30;99.90
17565;DHT22;62994;52.126;5.596;2024-01-16T05:05:26;2.40;99.90
17565;DHT22;62994;52.126;5.596;2024-01-16T05:07:53;2.40;99.90
17565;DHT22;62994;52.126;5.596;2024-01-16T05:10:20;2.40;99.90
17565;DHT22;62994;52.126;5.596;2024-01-16T05:12:47;2.40;99.90
17565;DHT22;62994;52.126;5.596;2024-01-16T05:15:14;2.40;99.90
17565;DHT22;62994;52.126;5.596;2024-01-16T05:17:42;2.40;99.90
17565;DHT22;62994;52.126;5.596;2024-01-16T05:20:10;2.50;99.90
17565;DHT22;62994;52.126;5.596;2024-01-16T05:22:37;2.40;99.90
17565;DHT22;62994;52.126;5.596;2024-01-16T05:25:05;2.40;99.90
17565;DHT22;62994;52.126;5.596;2024-01-16T05:27:33;2.40;99.90
17565;DHT22;62994;52.126;5.596;2024-01-16T05:30:00;2.50;99.90
17565;DHT22;62994;52.126;5.596;2024-01-16T05:32:27;2.50;99.90
17565;DHT22;62994;52.126;5.596;2024-01-16T05:34:56;2.50;99.90
17565;DHT22;62994;52.126;5.596;2024-01-16T05:37:23;2.50;99.90
17565;DHT22;62994;52.126;5.596;2024-01-16T05:39:50;2.50;99.90
17565;DHT22;62994;52.126;5.596;2024-01-16T05:42:17;2.50;99.90
17565;DHT22;62994;52.126;5.596;2024-01-16T05:44:44;2.50;99.90
17565;DHT22;62994;52.126;5.596;2024-01-16T05:47:11;2.50;99.90
17565;DHT22;62994;52.126;5.596;2024-01-16T05:49:38;2.50;99.90
17565;DHT22;62994;52.126;5.596;2024-01-16T05:52:08;2.60;99.90
17565;DHT22;62994;52.126;5.596;2024-01-16T05:54:36;2.50;99.90
17565;DHT22;62994;52.126;5.596;2024-01-16T05:57:03;2.50;99.90
17565;DHT22;62994;52.126;5.596;2024-01-16T05:59:30;2.50;99.90
17565;DHT22;62994;52.126;5.596;2024-01-16T06:01:57;2.50;99.90
17565;DHT22;62994;52.126;5.596;2024-01-16T06:04:25;2.50;99.90
17565;DHT22;62994;52.126;5.596;2024-01-16T06:06:52;2.50;99.90
17565;DHT22;62994;52.126;5.596;2024-01-16T06:09:20;2.50;99.90
17565;DHT22;62994;52.126;5.596;2024-01-16T06:11:47;2.50;99.90
17565;DHT22;62994;52.126;5.596;2024-01-16T06:14:14;2.50;99.90
17565;DHT22;62994;52.126;5.596;2024-01-16T06:16:47;2.40;99.90
17565;DHT22;62994;52.126;5.596;2024-01-16T06:19:14;2.50;99.90
17565;DHT22;62994;52.126;5.596;2024-01-16T06:21:41;2.50;99.90
17565;DHT22;62994;52.126;5.596;2024-01-16T06:24:08;2.50;99.90
17565;DHT22;62994;52.126;5.596;2024-01-16T06:26:38;2.50;99.90
17565;DHT22;62994;52.126;5.596;2024-01-16T06:29:05;2.40;99.90
17565;DHT22;62994;52.126;5.596;2024-01-16T06:31:33;2.40;99.90
17565;DHT22;62994;52.126;5.596;2024-01-16T06:34:00;2.40;99.90
17565;DHT22;62994;52.126;5.596;2024-01-16T06:36:27;2.40;99.90
17565;DHT22;62994;52.126;5.596;2024-01-16T06:38:54;2.40;99.90
17565;DHT22;62994;52.126;5.596;2024-01-16T06:41:20;2.40;99.90
17565;DHT22;62994;52.126;5.596;2024-01-16T06:43:49;2.40;99.90
17565;DHT22;62994;52.126;5.596;2024-01-16T06:46:16;2.40;99.90
17565;DHT22;62994;52.126;5.596;2024-01-16T06:48:44;2.40;99.90
17565;DHT22;62994;52.126;5.596;2024-01-16T06:51:11;2.40;99.90
17565;DHT22;62994;52.126;5.596;2024-01-16T06:53:39;2.40;99.90
17565;DHT22;62994;52.126;5.596;2024-01-16T06:56:06;2.40;99.90
17565;DHT22;62994;52.126;5.596;2024-01-16T06:58:34;2.40;99.90
17565;DHT22;62994;52.126;5.596;2024-01-16T07:01:04;2.40;99.90
17565;DHT22;62994;52.126;5.596;2024-01-16T07:03:31;2.40;99.90
17565;DHT22;62994;52.126;5.596;2024-01-16T07:05:57;2.50;99.90
17565;DHT22;62994;52.126;5.596;2024-01-16T07:08:24;2.40;99.90
17565;DHT22;62994;52.126;5.596;2024-01-16T07:10:52;2.50;99.90
17565;DHT22;62994;52.126;5.596;2024-01-16T07:13:19;2.50;99.90
17565;DHT22;62994;52.126;5.596;2024-01-16T07:15:46;2.50;99.90
17565;DHT22;62994;52.126;5.596;2024-01-16T07:18:15;2.50;99.90
17565;DHT22;62994;52.126;5.596;2024-01-16T07:20:43;2.50;99.90
17565;DHT22;62994;52.126;5.596;2024-01-16T07:23:11;2.50;99.90
17565;DHT22;62994;52.126;5.596;2024-01-16T07:25:38;2.60;99.90
17565;DHT22;62994;52.126;5.596;2024-01-16T07:28:05;2.60;99.90
17565;DHT22;62994;52.126;5.596;2024-01-16T07:30:32;2.50;99.90
17565;DHT22;62994;52.126;5.596;2024-01-16T07:32:59;2.50;99.90
17565;DHT22;62994;52.126;5.596;2024-01-16T07:35:27;2.60;99.90
17565;DHT22;62994;52.126;5.596;2024-01-16T07:37:54;2.60;99.90
17565;DHT22;62994;52.126;5.596;2024-01-16T07:40:21;2.60;99.90
17565;DHT22;62994;52.126;5.596;2024-01-16T07:42:49;2.60;99.90
17565;DHT22;62994;52.126;5.596;2024-01-16T07:45:16;2.60;99.90
17565;DHT22;62994;52.126;5.596;2024-01-16T07:47:43;2.60;99.90
17565;DHT22;62994;52.126;5.596;2024-01-16T07:50:10;2.60;99.90
17565;DHT22;62994;52.126;5.596;2024-01-16T07:52:39;2.60;99.90
17565;DHT22;62994;52.126;5.596;2024-01-16T07:55:06;2.60;99.90
17565;DHT22;62994;52.126;5.596;2024-01-16T07:57:33;2.70;99.90
17565;DHT22;62994;52.126;5.596;2024-01-16T08:00:06;2.70;99.90
17565;DHT22;62994;52.126;5.596;2024-01-16T08:02:37;2.70;99.90
17565;DHT22;62994;52.126;5.596;2024-01-16T08:05:05;2.70;99.90
17565;DHT22;62994;52.126;5.596;2024-01-16T08:07:32;2.70;99.90
17565;DHT22;62994;52.126;5.596;2024-01-16T08:10:02;2.70;99.90
17565;DHT22;62994;52.126;5.596;2024-01-16T08:12:29;2.80;99.90
17565;DHT22;62994;52.126;5.596;2024-01-16T08:14:56;2.80;99.90
17565;DHT22;62994;52.126;5.596;2024-01-16T08:17:23;2.70;99.90
17565;DHT22;62994;52.126;5.596;2024-01-16T08:19:50;2.70;99.90
17565;DHT22;62994;52.126;5.596;2024-01-16T08:22:17;2.80;99.90
17565;DHT22;62994;52.126;5.596;2024-01-16T08:24:44;2.80;99.90
17565;DHT22;62994;52.126;5.596;2024-01-16T08:27:12;2.80;99.90
17565;DHT22;62994;52.126;5.596;2024-01-16T08:29:39;2.80;99.90
17565;DHT22;62994;52.126;5.596;2024-01-16T08:32:06;2.90;99.90
17565;DHT22;62994;52.126;5.596;2024-01-16T08:34:33;2.90;99.90
17565;DHT22;62994;52.126;5.596;2024-01-16T08:37:00;2.90;99.90
17565;DHT22;62994;52.126;5.596;2024-01-16T08:39:28;2.90;99.90
17565;DHT22;62994;52.126;5.596;2024-01-16T08:41:58;2.90;99.90
17565;DHT22;62994;52.126;5.596;2024-01-16T08:44:29;2.90;99.90
17565;DHT22;62994;52.126;5.596;2024-01-16T08:46:56;2.90;99.90
17565;DHT22;62994;52.126;5.596;2024-01-16T08:49:25;2.90;99.90
17565;DHT22;62994;52.126;5.596;2024-01-16T08:51:52;2.80;99.90
17565;DHT22;62994;52.126;5.596;2024-01-16T08:54:19;2.90;99.90
17565;DHT22;62994;52.126;5.596;2024-01-16T08:56:48;2.90;99.90
17565;DHT22;62994;52.126;5.596;2024-01-16T08:59:16;2.80;99.90
17565;DHT22;62994;52.126;5.596;2024-01-16T09:01:45;2.80;99.90
17565;DHT22;62994;52.126;5.596;2024-01-16T09:04:12;2.70;99.90
17565;DHT22;62994;52.126;5.596;2024-01-16T09:06:39;2.80;99.90
17565;DHT22;62994;52.126;5.596;2024-01-16T09:09:06;2.70;99.90
17565;DHT22;62994;52.126;5.596;2024-01-16T09:11:34;2.70;99.90
17565;DHT22;62994;52.126;5.596;2024-01-16T09:14:01;2.60;99.90
17565;DHT22;62994;52.126;5.596;2024-01-16T09:16:29;2.70;99.90
17565;DHT22;62994;52.126;5.596;2024-01-16T09:18:57;2.60;99.90
17565;DHT22;62994;52.126;5.596;2024-01-16T09:21:24;2.70;99.90
17565;DHT22;62994;52.126;5.596;2024-01-16T09:23:51;2.70;99.90
17565;DHT22;62994;52.126;5.596;2024-01-16T09:26:18;2.60;99.90
17565;DHT22;62994;52.126;5.596;2024-01-16T09:28:46;2.60;99.90
17565;DHT22;62994;52.126;5.596;2024-01-16T09:31:15;2.70;99.90
17565;DHT22;62994;52.126;5.596;2024-01-16T09:33:42;2.60;99.90
17565;DHT22;62994;52.126;5.596;2024-01-16T09:36:10;2.60;99.90
17565;DHT22;62994;52.126;5.596;2024-01-16T09:38:37;2.60;99.90
17565;DHT22;62994;52.126;5.596;2024-01-16T09:41:04;2.70;99.90
17565;DHT22;62994;52.126;5.596;2024-01-16T09:43:32;2.70;99.90
17565;DHT22;62994;52.126;5.596;2024-01-16T09:46:01;2.60;99.90
17565;DHT22;62994;52.126;5.596;2024-01-16T09:48:29;2.70;99.90
17565;DHT22;62994;52.126;5.596;2024-01-16T09:50:57;2.60;99.90
17565;DHT22;62994;52.126;5.596;2024-01-16T09:53:25;2.70;99.90
17565;DHT22;62994;52.126;5.596;2024-01-16T09:55:54;2.70;99.90
17565;DHT22;62994;52.126;5.596;2024-01-16T09:58:23;2.80;99.90
17565;DHT22;62994;52.126;5.596;2024-01-16T10:00:51;2.80;99.90
17565;DHT22;62994;52.126;5.596;2024-01-16T10:03:19;2.80;99.90
17565;DHT22;62994;52.126;5.596;2024-01-16T10:05:48;2.90;99.90
17565;DHT22;62994;52.126;5.596;2024-01-16T10:08:15;2.90;99.90
17565;DHT22;62994;52.126;5.596;2024-01-16T10:10:46;2.90;99.90
17565;DHT22;62994;52.126;5.596;2024-01-16T10:13:14;2.90;99.90
17565;DHT22;62994;52.126;5.596;2024-01-16T10:15:41;2.80;99.90
17565;DHT22;62994;52.126;5.596;2024-01-16T10:18:22;2.80;99.90
17565;DHT22;62994;52.126;5.596;2024-01-16T10:20:49;2.80;99.90
17565;DHT22;62994;52.126;5.596;2024-01-16T10:23:24;2.80;99.90
17565;DHT22;62994;52.126;5.596;2024-01-16T10:26:07;2.80;99.90
17565;DHT22;62994;52.126;5.596;2024-01-16T10:28:35;2.90;99.90
17565;DHT22;62994;52.126;5.596;2024-01-16T10:31:02;2.90;99.90
17565;DHT22;62994;52.126;5.596;2024-01-16T10:33:29;2.90;99.90
17565;DHT22;62994;52.126;5.596;2024-01-16T10:36:08;2.90;99.90
17565;DHT22;62994;52.126;5.596;2024-01-16T10:38:36;2.90;99.90
17565;DHT22;62994;52.126;5.596;2024-01-16T10:41:06;3.00;99.90
17565;DHT22;62994;52.126;5.596;2024-01-16T10:43:34;3.00;99.90
17565;DHT22;62994;52.126;5.596;2024-01-16T10:46:08;3.00;99.90
17565;DHT22;62994;52.126;5.596;2024-01-16T10:48:38;3.10;99.90
17565;DHT22;62994;52.126;5.596;2024-01-16T10:51:06;3.10;99.90
17565;DHT22;62994;52.126;5.596;2024-01-16T10:53:34;3.10;99.90
17565;DHT22;62994;52.126;5.596;2024-01-16T10:56:02;3.10;99.90
17565;DHT22;62994;52.126;5.596;2024-01-16T10:58:31;3.30;99.90
17565;DHT22;62994;52.126;5.596;2024-01-16T11:01:02;3.30;99.90
17565;DHT22;62994;52.126;5.596;2024-01-16T11:03:36;3.30;99.90
17565;DHT22;62994;52.126;5.596;2024-01-16T11:06:06;3.30;99.90
17565;DHT22;62994;52.126;5.596;2024-01-16T11:08:36;3.30;99.90
17565;DHT22;62994;52.126;5.596;2024-01-16T11:11:04;3.40;99.90
17565;DHT22;62994;52.126;5.596;2024-01-16T11:13:33;3.40;99.90
17565;DHT22;62994;52.126;5.596;2024-01-16T11:16:03;3.50;99.90
17565;DHT22;62994;52.126;5.596;2024-01-16T11:18:31;3.40;99.90
17565;DHT22;62994;52.126;5.596;2024-01-16T11:21:00;3.50;99.90
17565;DHT22;62994;52.126;5.596;2024-01-16T11:23:28;3.50;99.90
17565;DHT22;62994;52.126;5.596;2024-01-16T11:25:55;3.50;99.90
17565;DHT22;62994;52.126;5.596;2024-01-16T11:28:27;3.50;99.90
17565;DHT22;62994;52.126;5.596;2024-01-16T11:30:55;3.50;99.90
17565;DHT22;62994;52.126;5.596;2024-01-16T11:33:45;3.60;99.90
17565;DHT22;62994;52.126;5.596;2024-01-16T11:36:50;3.60;99.90
17565;DHT22;62994;52.126;5.596;2024-01-16T11:39:20;3.60;99.90
17565;DHT22;62994;52.126;5.596;2024-01-16T11:41:52;3.70;99.90
17565;DHT22;62994;52.126;5.596;2024-01-16T11:44:42;3.60;99.90
17565;DHT22;62994;52.126;5.596;2024-01-16T11:47:21;3.60;99.90
17565;DHT22;62994;52.126;5.596;2024-01-16T11:49:51;3.70;99.90
17565;DHT22;62994;52.126;5.596;2024-01-16T11:52:39;3.70;99.90
17565;DHT22;62994;52.126;5.596;2024-01-16T11:55:24;3.70;99.90
17565;DHT22;62994;52.126;5.596;2024-01-16T11:58:02;3.70;99.90
17565;DHT22;62994;52.126;5.596;2024-01-16T12:00:35;3.70;99.90
17565;DHT22;62994;52.126;5.596;2024-01-16T12:03:03;3.80;99.90
17565;DHT22;62994;52.126;5.596;2024-01-16T12:05:32;3.70;99.90
17565;DHT22;62994;52.126;5.596;2024-01-16T12:07:58;3.70;99.90
17565;DHT22;62994;52.126;5.596;2024-01-16T12:10:25;3.80;99.90
17565;DHT22;62994;52.126;5.596;2024-01-16T12:12:58;3.90;99.90
17565;DHT22;62994;52.126;5.596;2024-01-16T12:15:26;3.90;99.90
17565;DHT22;62994;52.126;5.596;2024-01-16T12:17:54;3.90;99.90
17565;DHT22;62994;52.126;5.596;2024-01-16T12:20:22;3.90;99.90
17565;DHT22;62994;52.126;5.596;2024-01-16T12:22:54;3.90;99.90
17565;DHT22;62994;52.126;5.596;2024-01-16T12:25:22;3.90;99.90
17565;DHT22;62994;52.126;5.596;2024-01-16T12:27:57;4.00;99.90
17565;DHT22;62994;52.126;5.596;2024-01-16T12:30:29;4.00;99.90
17565;DHT22;62994;52.126;5.596;2024-01-16T12:33:04;4.10;99.90
17565;DHT22;62994;52.126;5.596;2024-01-16T12:35:33;4.10;99.90
17565;DHT22;62994;52.126;5.596;2024-01-16T12:38:03;4.00;99.90
17565;DHT22;62994;52.126;5.596;2024-01-16T12:40:32;4.00;99.90
17565;DHT22;62994;52.126;5.596;2024-01-16T12:42:59;4.00;99.90
17565;DHT22;62994;52.126;5.596;2024-01-16T12:45:26;3.90;99.90
17565;DHT22;62994;52.126;5.596;2024-01-16T12:47:54;3.90;99.90
17565;DHT22;62994;52.126;5.596;2024-01-16T12:50:24;3.90;99.90
17565;DHT22;62994;52.126;5.596;2024-01-16T12:53:03;4.00;99.90
17565;DHT22;62994;52.126;5.596;2024-01-16T12:55:31;4.00;99.90
17565;DHT22;62994;52.126;5.596;2024-01-16T12:58:18;4.00;99.90
17565;DHT22;62994;52.126;5.596;2024-01-16T13:00:46;4.00;99.90
17565;DHT22;62994;52.126;5.596;2024-01-16T13:03:17;4.00;99.90
17565;DHT22;62994;52.126;5.596;2024-01-16T13:05:44;4.00;99.90
17565;DHT22;62994;52.126;5.596;2024-01-16T13:08:19;3.90;99.90
17565;DHT22;62994;52.126;5.596;2024-01-16T13:10:46;3.90;99.90
17565;DHT22;62994;52.126;5.596;2024-01-16T13:13:14;4.00;99.90
17565;DHT22;62994;52.126;5.596;2024-01-16T13:15:43;4.00;99.90
17565;DHT22;62994;52.126;5.596;2024-01-16T13:18:19;4.00;99.90
17565;DHT22;62994;52.126;5.596;2024-01-16T13:20:48;4.10;99.90
17565;DHT22;62994;52.126;5.596;2024-01-16T13:23:14;4.10;99.90
17565;DHT22;62994;52.126;5.596;2024-01-16T13:25:44;4.10;99.90
17565;DHT22;62994;52.126;5.596;2024-01-16T13:28:12;4.10;99.90
17565;DHT22;62994;52.126;5.596;2024-01-16T13:30:39;4.10;99.90
17565;DHT22;62994;52.126;5.596;2024-01-16T13:33:06;4.20;99.90
17565;DHT22;62994;52.126;5.596;2024-01-16T13:35:34;4.10;99.90
17565;DHT22;62994;52.126;5.596;2024-01-16T13:38:03;4.20;99.90
17565;DHT22;62994;52.126;5.596;2024-01-16T13:40:30;4.20;99.90
17565;DHT22;62994;52.126;5.596;2024-01-16T13:42:59;4.20;99.90
17565;DHT22;62994;52.126;5.596;2024-01-16T13:45:26;4.10;99.90
17565;DHT22;62994;52.126;5.596;2024-01-16T13:47:53;4.10;99.90
17565;DHT22;62994;52.126;5.596;2024-01-16T13:50:21;4.10;99.90
17565;DHT22;62994;52.126;5.596;2024-01-16T13:52:48;4.10;99.90
17565;DHT22;62994;52.126;5.596;2024-01-16T13:55:15;4.10;99.90
17565;DHT22;62994;52.126;5.596;2024-01-16T13:57:42;4.00;99.90
17565;DHT22;62994;52.126;5.596;2024-01-16T14:00:12;4.10;99.90
17565;DHT22;62994;52.126;5.596;2024-01-16T14:02:40;4.10;99.90
17565;DHT22;62994;52.126;5.596;2024-01-16T14:05:08;4.20;99.90
17565;DHT22;62994;52.126;5.596;2024-01-16T14:07:36;4.30;99.90
17565;DHT22;62994;52.126;5.596;2024-01-16T14:10:05;4.30;99.90
17565;DHT22;62994;52.126;5.596;2024-01-16T14:12:33;4.30;99.90
17565;DHT22;62994;52.126;5.596;2024-01-16T14:15:01;4.20;99.90
17565;DHT22;62994;52.126;5.596;2024-01-16T14:17:31;4.20;99.90
17565;DHT22;62994;52.126;5.596;2024-01-16T14:19:59;4.20;99.90
17565;DHT22;62994;52.126;5.596;2024-01-16T14:22:26;4.10;99.90
17565;DHT22;62994;52.126;5.596;2024-01-16T14:24:53;4.10;99.90
17565;DHT22;62994;52.126;5.596;2024-01-16T14:27:20;4.00;99.90
17565;DHT22;62994;52.126;5.596;2024-01-16T14:29:47;4.00;99.90
17565;DHT22;62994;52.126;5.596;2024-01-16T14:32:14;4.00;99.90
17565;DHT22;62994;52.126;5.596;2024-01-16T14:34:42;4.00;99.90
17565;DHT22;62994;52.126;5.596;2024-01-16T14:37:09;3.90;99.90
17565;DHT22;62994;52.126;5.596;2024-01-16T14:39:37;3.90;99.90
17565;DHT22;62994;52.126;5.596;2024-01-16T14:42:04;3.80;99.90
17565;DHT22;62994;52.126;5.596;2024-01-16T14:44:33;3.80;99.90
17565;DHT22;62994;52.126;5.596;2024-01-16T14:47:00;3.90;99.90
17565;DHT22;62994;52.126;5.596;2024-01-16T14:49:26;3.80;99.90
17565;DHT22;62994;52.126;5.596;2024-01-16T14:51:58;3.70;99.90
17565;DHT22;62994;52.126;5.596;2024-01-16T14:54:27;3.70;99.90
17565;DHT22;62994;52.126;5.596;2024-01-16T14:56:54;3.60;99.90
17565;DHT22;62994;52.126;5.596;2024-01-16T14:59:21;3.60;99.90
17565;DHT22;62994;52.126;5.596;2024-01-16T15:01:48;3.60;99.90
17565;DHT22;62994;52.126;5.596;2024-01-16T15:04:22;3.60;99.90
17565;DHT22;62994;52.126;5.596;2024-01-16T15:06:49;3.60;99.90
17565;DHT22;62994;52.126;5.596;2024-01-16T15:09:26;3.50;99.90
17565;DHT22;62994;52.126;5.596;2024-01-16T15:12:04;3.50;99.90
17565;DHT22;62994;52.126;5.596;2024-01-16T15:14:32;3.40;99.90
17565;DHT22;62994;52.126;5.596;2024-01-16T15:16:59;3.40;99.90
17565;DHT22;62994;52.126;5.596;2024-01-16T15:19:26;3.50;99.90
17565;DHT22;62994;52.126;5.596;2024-01-16T15:21:53;3.40;99.90
17565;DHT22;62994;52.126;5.596;2024-01-16T15:24:22;3.40;99.90
17565;DHT22;62994;52.126;5.596;2024-01-16T15:26:54;3.40;99.90
17565;DHT22;62994;52.126;5.596;2024-01-16T15:29:22;3.30;99.90
17565;DHT22;62994;52.126;5.596;2024-01-16T15:31:49;3.30;99.90
17565;DHT22;62994;52.126;5.596;2024-01-16T15:34:17;3.30;99.90
17565;DHT22;62994;52.126;5.596;2024-01-16T15:36:44;3.30;99.90
17565;DHT22;62994;52.126;5.596;2024-01-16T15:39:17;3.30;99.90
17565;DHT22;62994;52.126;5.596;2024-01-16T15:41:46;3.40;99.90
17565;DHT22;62994;52.126;5.596;2024-01-16T15:44:13;3.40;99.90
17565;DHT22;62994;52.126;5.596;2024-01-16T15:46:56;3.30;99.90
17565;DHT22;62994;52.126;5.596;2024-01-16T15:49:31;3.30;99.90
17565;DHT22;62994;52.126;5.596;2024-01-16T15:51:58;3.30;99.90